createdAt,value
2018-11-07T00:03:21.646Z,20.77
2018-11-07T00:08:25.252Z,19.13
2018-11-07T00:13:28.786Z,19.20
2018-11-07T00:18:32.607Z,17.77
2018-11-07T00:23:36.216Z,18.07
2018-11-07T00:28:39.919Z,16.37
2018-11-07T00:33:43.963Z,17.77
2018-11-07T00:38:47.713Z,18.13
2018-11-07T00:43:51.788Z,17.33
2018-11-07T00:48:56.437Z,18.73
2018-11-07T00:54:00.114Z,20.70
2018-11-07T00:59:03.977Z,19.47
2018-11-07T01:04:07.756Z,17.40
2018-11-07T01:09:12.569Z,18.70
2018-11-07T01:14:16.123Z,20.47
2018-11-07T01:19:19.727Z,20.83
2018-11-07T01:24:23.362Z,18.47
2018-11-07T01:29:27.348Z,21.60
2018-11-07T01:34:30.908Z,18.77
2018-11-07T01:39:34.731Z,20.80
2018-11-07T01:44:38.414Z,18.80
2018-11-07T01:49:42.222Z,20.13
2018-11-07T01:54:45.898Z,19.80
2018-11-07T01:59:49.594Z,20.13
2018-11-07T02:04:53.335Z,18.00
2018-11-07T02:09:56.925Z,20.90
2018-11-07T02:15:02.134Z,21.23
2018-11-07T02:20:07.203Z,19.10
2018-11-07T02:25:11.094Z,20.87
2018-11-07T02:35:28.547Z,19.47
2018-11-07T02:40:32.161Z,18.83
2018-11-07T02:45:35.911Z,19.30
2018-11-07T02:50:40.492Z,18.40
2018-11-07T02:55:44.024Z,19.90
2018-11-07T03:00:47.627Z,17.77
2018-11-07T03:05:51.176Z,20.07
2018-11-07T03:10:55.016Z,20.03
2018-11-07T03:15:58.940Z,21.60
2018-11-07T03:21:02.707Z,22.10
2018-11-07T03:26:06.805Z,19.90
2018-11-07T03:31:10.424Z,20.73
2018-11-07T03:36:14.305Z,21.97
2018-11-07T03:41:17.936Z,21.33
2018-11-07T03:46:21.531Z,20.97
2018-11-07T03:51:25.136Z,24.13
2018-11-07T03:56:28.698Z,19.97
2018-11-07T04:01:32.294Z,20.37
2018-11-07T04:06:35.817Z,19.47
2018-11-07T04:11:39.491Z,18.03
2018-11-07T04:16:43.276Z,20.27
2018-11-07T04:21:47.150Z,17.60
2018-11-07T04:26:51.009Z,19.73
2018-11-07T04:31:54.720Z,19.13
2018-11-07T04:36:58.314Z,17.83
2018-11-07T04:42:01.922Z,19.30
2018-11-07T04:47:05.837Z,18.53
2018-11-07T04:52:09.442Z,17.17
2018-11-07T04:57:12.990Z,19.10
2018-11-07T05:02:16.554Z,19.30
2018-11-07T05:07:20.025Z,24.17
2018-11-07T05:12:23.677Z,25.70
2018-11-07T05:17:27.233Z,23.70
2018-11-07T05:22:30.860Z,24.33
2018-11-07T05:27:36.128Z,22.17
2018-11-07T05:32:39.876Z,23.77
2018-11-07T05:37:43.550Z,22.37
2018-11-07T05:42:47.313Z,20.53
2018-11-07T05:47:50.983Z,22.80
2018-11-07T05:52:54.888Z,24.00
2018-11-07T05:57:58.753Z,23.40
2018-11-07T06:03:02.993Z,22.87
2018-11-07T06:08:07.228Z,21.23
2018-11-07T06:13:10.939Z,19.10
2018-11-07T06:18:14.572Z,15.83
2018-11-07T06:23:18.230Z,17.30
2018-11-07T06:28:22.939Z,17.10
2018-11-07T06:33:28.132Z,17.63
2018-11-07T06:38:33.261Z,15.87
2018-11-07T06:43:37.932Z,14.60
2018-11-07T06:48:43.435Z,14.67
2018-11-07T06:53:48.507Z,16.97
2018-11-07T06:58:55.002Z,16.33
2018-11-07T07:03:58.587Z,16.67
2018-11-07T07:09:03.023Z,15.93
2018-11-07T07:14:06.860Z,18.33
2018-11-07T07:19:10.482Z,21.33
2018-11-07T07:24:14.220Z,20.57
2018-11-07T07:29:17.778Z,18.27
2018-11-07T07:34:21.493Z,20.37
2018-11-07T07:39:25.136Z,17.63
2018-11-07T07:44:28.775Z,21.17
2018-11-07T07:49:32.358Z,18.50
2018-11-07T07:54:36.018Z,20.00
2018-11-07T07:59:39.588Z,19.13
2018-11-07T08:04:43.185Z,16.50
2018-11-07T08:09:46.789Z,17.77
2018-11-07T08:14:50.579Z,16.70
2018-11-07T08:19:54.069Z,17.70
2018-11-07T08:24:57.743Z,15.77
2018-11-07T08:30:01.296Z,14.30
2018-11-07T08:35:05.549Z,13.50
2018-11-07T08:40:14.654Z,13.27
2018-11-07T08:45:18.407Z,12.53
2018-11-07T08:50:22.492Z,10.57
2018-11-07T08:55:26.094Z,10.80
2018-11-07T09:00:32.203Z,10.47
2018-11-07T09:05:35.838Z,8.63
2018-11-07T09:10:39.539Z,7.37
2018-11-07T09:15:43.137Z,5.57
2018-11-07T09:20:46.876Z,5.57
2018-11-07T09:25:50.563Z,5.47
2018-11-07T09:30:54.115Z,6.67
2018-11-07T09:35:57.758Z,6.40
2018-11-07T09:41:02.200Z,6.70
2018-11-07T09:46:06.018Z,6.70
2018-11-07T09:51:09.573Z,6.00
2018-11-07T09:56:13.235Z,6.73
2018-11-07T10:01:16.835Z,5.67
2018-11-07T10:06:20.488Z,5.57
2018-11-07T10:11:24.205Z,4.87
2018-11-07T10:16:27.758Z,5.53
2018-11-07T10:21:31.243Z,4.93
2018-11-07T10:26:34.837Z,5.10
2018-11-07T10:31:38.353Z,5.37
2018-11-07T10:36:41.936Z,4.87
2018-11-07T10:41:45.831Z,4.47
2018-11-07T10:46:49.406Z,4.47
2018-11-07T10:51:53.082Z,3.97
2018-11-07T10:56:56.931Z,3.27
2018-11-07T11:02:02.613Z,2.93
2018-11-07T11:07:06.684Z,3.97
2018-11-07T11:12:10.314Z,3.20
2018-11-07T11:17:13.857Z,2.60
2018-11-07T11:22:17.521Z,2.27
2018-11-07T11:27:21.141Z,2.20
2018-11-07T11:32:25.119Z,2.93
2018-11-07T11:37:28.782Z,2.70
2018-11-07T11:42:32.516Z,2.90
2018-11-07T11:47:36.048Z,2.70
2018-11-07T11:52:39.810Z,1.83
2018-11-07T11:57:43.851Z,2.17
2018-11-07T12:02:47.811Z,2.03
2018-11-07T12:07:52.325Z,1.50
2018-11-07T12:12:56.992Z,1.90
2018-11-07T12:18:00.782Z,1.70
2018-11-07T12:23:04.556Z,1.30
2018-11-07T12:28:08.035Z,1.17
2018-11-07T12:33:11.691Z,1.83
2018-11-07T12:38:15.245Z,1.63
2018-11-07T12:43:22.579Z,1.33
2018-11-07T12:48:26.452Z,2.03
2018-11-07T12:53:30.393Z,1.40
2018-11-07T12:58:34.259Z,1.30
2018-11-07T13:03:38.124Z,1.73
2018-11-07T13:08:41.836Z,2.20
2018-11-07T13:13:45.631Z,1.40
2018-11-07T13:18:49.150Z,1.30
2018-11-07T13:23:52.710Z,1.40
2018-11-07T13:28:56.481Z,1.60
2018-11-07T13:34:00.052Z,1.37
2018-11-07T13:39:04.423Z,1.43
2018-11-07T13:44:07.945Z,1.13
2018-11-07T13:49:11.550Z,1.50
2018-11-07T13:54:16.046Z,1.30
2018-11-07T13:59:19.589Z,1.23
2018-11-07T14:04:23.237Z,1.27
2018-11-07T14:09:26.890Z,1.27
2018-11-07T14:14:30.540Z,1.10
2018-11-07T14:19:34.166Z,1.30
2018-11-07T14:24:37.785Z,1.50
2018-11-07T14:29:41.331Z,1.87
2018-11-07T14:34:45.481Z,1.33
2018-11-07T14:39:48.989Z,3.37
2018-11-07T14:44:52.589Z,5.37
2018-11-07T14:49:56.192Z,7.20
2018-11-07T14:55:00.064Z,6.40
2018-11-07T15:00:04.432Z,8.23
2018-11-07T15:05:09.623Z,7.53
2018-11-07T15:10:14.161Z,7.70
2018-11-07T15:15:19.010Z,7.50
2018-11-07T15:20:22.479Z,8.00
2018-11-07T15:25:26.033Z,8.57
2018-11-07T15:30:29.692Z,8.50
2018-11-07T15:35:33.388Z,8.33
2018-11-07T15:40:36.895Z,9.53
2018-11-07T15:45:40.661Z,10.37
2018-11-07T15:50:50.485Z,9.43
2018-11-07T15:55:54.199Z,8.67
2018-11-07T16:00:57.798Z,8.80
2018-11-07T16:06:01.418Z,9.03
2018-11-07T16:11:05.445Z,9.83
2018-11-07T16:16:09.032Z,9.67
2018-11-07T16:21:12.747Z,10.63
2018-11-07T16:26:16.484Z,9.37
2018-11-07T16:31:23.892Z,11.30
2018-11-07T16:36:27.579Z,8.10
2018-11-07T16:41:31.449Z,9.13
2018-11-07T16:46:35.122Z,11.10
2018-11-07T16:51:38.704Z,9.30
2018-11-07T16:56:42.397Z,9.20
2018-11-07T17:01:46.054Z,10.60
2018-11-07T17:06:49.727Z,11.27
2018-11-07T17:11:53.388Z,10.43
2018-11-07T17:16:57.003Z,9.40
2018-11-07T17:22:00.609Z,10.67
2018-11-07T17:27:04.273Z,9.13
2018-11-07T17:32:08.052Z,10.07
2018-11-07T17:37:11.718Z,8.77
2018-11-07T17:42:15.290Z,11.73
2018-11-07T17:47:18.827Z,9.53
2018-11-07T17:52:22.507Z,7.97
2018-11-07T17:57:39.117Z,7.03
2018-11-07T18:02:42.836Z,7.47
2018-11-07T18:07:46.754Z,7.50
2018-11-07T18:12:50.361Z,6.37
2018-11-07T18:17:57.802Z,6.77
2018-11-07T18:23:01.462Z,7.73
2018-11-07T18:28:05.605Z,6.53
2018-11-07T18:33:09.509Z,7.40
2018-11-07T18:38:13.279Z,7.10
2018-11-07T18:43:16.995Z,6.30
2018-11-07T18:48:20.612Z,6.70
2018-11-07T18:53:31.279Z,7.07
2018-11-07T18:58:34.883Z,6.63
2018-11-07T19:03:38.488Z,6.17
2018-11-07T19:08:42.196Z,6.07
2018-11-07T19:13:45.814Z,6.30
2018-11-07T19:18:49.542Z,5.33
2018-11-07T19:23:53.241Z,6.17
2018-11-07T19:28:56.880Z,5.23
2018-11-07T19:34:00.539Z,6.83
2018-11-07T19:39:05.403Z,4.43
2018-11-07T19:44:10.451Z,5.30
2018-11-07T19:49:14.449Z,5.37
2018-11-07T19:54:19.281Z,4.90
2018-11-07T19:59:22.907Z,5.07
2018-11-07T20:04:26.751Z,4.30
2018-11-07T20:09:30.322Z,4.93
2018-11-07T20:14:33.872Z,3.73
2018-11-07T20:19:37.412Z,5.03
2018-11-07T20:24:41.071Z,5.03
2018-11-07T20:29:44.954Z,5.23
2018-11-07T20:34:48.681Z,5.97
2018-11-07T20:39:52.840Z,5.23
2018-11-07T20:44:56.422Z,5.17
2018-11-07T20:50:00.352Z,5.73
2018-11-07T20:55:04.294Z,4.77
2018-11-07T21:00:13.968Z,6.17
2018-11-07T21:05:23.713Z,6.00
2018-11-07T21:10:27.460Z,6.70
2018-11-07T21:15:30.944Z,6.40
2018-11-07T21:20:34.481Z,6.77
2018-11-07T21:25:38.061Z,7.00
2018-11-07T21:30:41.529Z,5.93
2018-11-07T21:35:45.426Z,5.83
2018-11-07T21:40:49.256Z,5.53
2018-11-07T21:45:52.794Z,6.10
2018-11-07T21:50:56.439Z,6.23
2018-11-07T21:55:59.976Z,6.27
2018-11-07T22:01:03.605Z,6.27
2018-11-07T22:06:07.238Z,7.13
2018-11-07T22:11:10.990Z,5.77
2018-11-07T22:16:14.711Z,5.90
2018-11-07T22:21:18.359Z,7.63
2018-11-07T22:26:21.880Z,6.33
2018-11-07T22:31:25.515Z,7.63
2018-11-07T22:36:29.057Z,7.13
2018-11-07T22:41:32.703Z,7.07
2018-11-07T22:46:36.340Z,6.10
2018-11-07T22:51:42.197Z,5.90
2018-11-07T22:56:45.817Z,6.00
2018-11-07T23:01:49.445Z,5.77
2018-11-07T23:06:52.973Z,6.13
2018-11-07T23:11:56.514Z,4.87
2018-11-07T23:17:00.154Z,5.07
2018-11-07T23:22:03.885Z,5.03
2018-11-07T23:27:07.611Z,4.90
2018-11-07T23:32:11.362Z,5.67
2018-11-07T23:37:15.980Z,5.03
2018-11-07T23:42:19.580Z,4.90
2018-11-07T23:47:23.126Z,5.10
2018-11-07T23:52:32.094Z,4.80
2018-11-07T23:57:35.701Z,4.90
